West Camp, New York
Current Conditions -  °F | °C
As of 11:53 AM on Tuesday 27 Jan 2015 (Local Time) from KPOU Reporting Station
Light Snow Light Snow  
Wind Chill:   Ceiling: 2500
Heat Index: 19°   Visibility: 1mi
Dew Point: 13°   Wind: 12mph
Humidity: 77%   Direction: 10°N
Pressure: 29.73"   Gusts: 23mph
Location:  42.12°N, 73.94°W
Report Text: KPOU 271653Z 01010G20KT 1SM -SN OVC025 M07/M11 A2973 RMK AO2 SLP068 P0000 T10721106
Loading
Personal Weather Stations






























Interactive Weather Map New forecast layout! Learn more

10-Day Weather Forecast

Advertisements
Track Severe Weather on mobile